Terminal Aerodrome Forecast
Issued by NWS Newport/Morehead City, NC

Home | Current Version | Previous Version | Graphics & Text | Print | Product List | Glossary On
Versions: 1 2 3 4 5 6 7 8 9 10 11 12 13 14 15 16 17 18 19 20
830
FTUS42 KMHX 162333
TAFEWN
TAF
KEWN 162333Z 1700/1724 VRB03KT P6SM SCT040
     FM170700 VRB02KT 2SM BR SCT003 BKN007
     FM171300 15006KT P6SM SCT040=

USA.gov is the U.S. government's official web portal to all federal, state and local government web resources and services.